Amorebieta-Etxano, Spain
Current Conditions -  °F | °C
As of 1:30 PM on Sunday 23 Nov 2014 (Local Time) from LEBB Reporting Station
Clear Clear  
Wind Chill: 73°   Ceiling: Unl
Heat Index: 73°   Visibility: 6mi
Dew Point: 52°   Wind: 8mph
Humidity: 47%   Direction: 170°S
Pressure: 29.85"   Gusts: NA
Location:  43.22°N, 2.73°W
Report Text: LEBB 231230Z 17007KT 140V230 CAVOK 23/11 Q1011 NOSIG
Loading
Personal Weather Stations






























Interactive Weather Map New forecast layout! Learn more

10-Day Weather Forecast

Advertisements
Track Severe Weather on mobile